sensor_id;sensor_type;location;lat;lon;timestamp;temperature;humidity
17053;DHT22;8643;48.824;11.422;2023-08-06T00:00:31;16.60;99.90
17053;DHT22;8643;48.824;11.422;2023-08-06T00:03:00;15.30;99.90
17053;DHT22;8643;48.824;11.422;2023-08-06T00:05:28;15.30;99.90
17053;DHT22;8643;48.824;11.422;2023-08-06T00:07:58;15.20;99.90
17053;DHT22;8643;48.824;11.422;2023-08-06T00:10:26;15.10;99.90
17053;DHT22;8643;48.824;11.422;2023-08-06T00:12:55;15.00;99.90
17053;DHT22;8643;48.824;11.422;2023-08-06T00:17:52;14.80;99.90
17053;DHT22;8643;48.824;11.422;2023-08-06T00:20:20;14.80;99.90
17053;DHT22;8643;48.824;11.422;2023-08-06T00:22:49;14.70;99.90
17053;DHT22;8643;48.824;11.422;2023-08-06T00:25:19;14.70;99.90
17053;DHT22;8643;48.824;11.422;2023-08-06T00:27:47;14.70;99.90
17053;DHT22;8643;48.824;11.422;2023-08-06T00:30:16;14.70;99.90
17053;DHT22;8643;48.824;11.422;2023-08-06T00:32:44;14.50;99.90
17053;DHT22;8643;48.824;11.422;2023-08-06T00:35:13;14.90;99.90
17053;DHT22;8643;48.824;11.422;2023-08-06T00:40:10;14.40;99.90
17053;DHT22;8643;48.824;11.422;2023-08-06T00:42:40;14.40;99.90
17053;DHT22;8643;48.824;11.422;2023-08-06T00:47:40;14.40;99.90
17053;DHT22;8643;48.824;11.422;2023-08-06T00:50:11;14.50;99.90
17053;DHT22;8643;48.824;11.422;2023-08-06T00:52:40;14.50;99.90
17053;DHT22;8643;48.824;11.422;2023-08-06T00:55:09;14.60;99.90
17053;DHT22;8643;48.824;11.422;2023-08-06T00:57:38;14.60;99.90
17053;DHT22;8643;48.824;11.422;2023-08-06T01:00:10;14.60;99.90
17053;DHT22;8643;48.824;11.422;2023-08-06T01:02:39;14.50;99.90
17053;DHT22;8643;48.824;11.422;2023-08-06T01:05:08;13.90;99.90
17053;DHT22;8643;48.824;11.422;2023-08-06T01:07:46;14.40;99.90
17053;DHT22;8643;48.824;11.422;2023-08-06T01:10:27;14.40;99.90
17053;DHT22;8643;48.824;11.422;2023-08-06T01:13:11;14.40;99.90
17053;DHT22;8643;48.824;11.422;2023-08-06T01:15:49;14.50;99.90
17053;DHT22;8643;48.824;11.422;2023-08-06T01:18:24;14.40;99.90
17053;DHT22;8643;48.824;11.422;2023-08-06T01:20:54;15.40;99.90
17053;DHT22;8643;48.824;11.422;2023-08-06T01:23:23;14.40;99.90
17053;DHT22;8643;48.824;11.422;2023-08-06T01:25:58;14.40;99.90
17053;DHT22;8643;48.824;11.422;2023-08-06T01:28:44;14.40;99.90
17053;DHT22;8643;48.824;11.422;2023-08-06T01:31:22;14.40;99.90
17053;DHT22;8643;48.824;11.422;2023-08-06T01:33:56;14.50;99.90
17053;DHT22;8643;48.824;11.422;2023-08-06T01:36:29;14.50;99.90
17053;DHT22;8643;48.824;11.422;2023-08-06T01:38:59;14.40;99.90
17053;DHT22;8643;48.824;11.422;2023-08-06T01:41:28;14.50;99.90
17053;DHT22;8643;48.824;11.422;2023-08-06T01:46:25;14.40;99.90
17053;DHT22;8643;48.824;11.422;2023-08-06T01:48:54;14.40;99.90
17053;DHT22;8643;48.824;11.422;2023-08-06T01:51:22;14.40;99.90
17053;DHT22;8643;48.824;11.422;2023-08-06T01:56:21;14.40;99.90
17053;DHT22;8643;48.824;11.422;2023-08-06T01:58:49;14.40;99.90
17053;DHT22;8643;48.824;11.422;2023-08-06T02:01:18;14.40;99.90
17053;DHT22;8643;48.824;11.422;2023-08-06T02:03:46;14.40;99.90
17053;DHT22;8643;48.824;11.422;2023-08-06T02:06:15;14.40;99.90
17053;DHT22;8643;48.824;11.422;2023-08-06T02:08:44;14.40;99.90
17053;DHT22;8643;48.824;11.422;2023-08-06T02:11:16;14.40;99.90
17053;DHT22;8643;48.824;11.422;2023-08-06T02:13:46;14.40;99.90
17053;DHT22;8643;48.824;11.422;2023-08-06T02:18:47;14.40;99.90
17053;DHT22;8643;48.824;11.422;2023-08-06T02:21:15;14.40;99.90
17053;DHT22;8643;48.824;11.422;2023-08-06T02:28:42;14.40;99.90
17053;DHT22;8643;48.824;11.422;2023-08-06T02:33:42;14.30;99.90
17053;DHT22;8643;48.824;11.422;2023-08-06T02:36:10;14.30;99.90
17053;DHT22;8643;48.824;11.422;2023-08-06T02:38:38;14.30;99.90
17053;DHT22;8643;48.824;11.422;2023-08-06T02:41:07;14.30;99.90
17053;DHT22;8643;48.824;11.422;2023-08-06T02:43:35;14.30;99.90
17053;DHT22;8643;48.824;11.422;2023-08-06T02:46:05;14.30;99.90
17053;DHT22;8643;48.824;11.422;2023-08-06T02:51:03;14.30;99.90
17053;DHT22;8643;48.824;11.422;2023-08-06T02:53:32;14.20;99.90
17053;DHT22;8643;48.824;11.422;2023-08-06T02:58:46;14.20;99.90
17053;DHT22;8643;48.824;11.422;2023-08-06T03:01:28;14.20;99.90
17053;DHT22;8643;48.824;11.422;2023-08-06T03:04:03;14.20;99.90
17053;DHT22;8643;48.824;11.422;2023-08-06T03:06:38;14.00;99.90
17053;DHT22;8643;48.824;11.422;2023-08-06T03:09:06;14.10;99.90
17053;DHT22;8643;48.824;11.422;2023-08-06T03:11:35;14.10;99.90
17053;DHT22;8643;48.824;11.422;2023-08-06T03:14:08;14.10;99.90
17053;DHT22;8643;48.824;11.422;2023-08-06T03:16:39;14.10;99.90
17053;DHT22;8643;48.824;11.422;2023-08-06T03:19:07;14.10;99.90
17053;DHT22;8643;48.824;11.422;2023-08-06T03:21:36;14.10;99.90
17053;DHT22;8643;48.824;11.422;2023-08-06T03:24:05;14.10;99.90
17053;DHT22;8643;48.824;11.422;2023-08-06T03:29:03;14.10;99.90
17053;DHT22;8643;48.824;11.422;2023-08-06T03:31:34;14.10;99.90
17053;DHT22;8643;48.824;11.422;2023-08-06T03:34:04;14.10;99.90
17053;DHT22;8643;48.824;11.422;2023-08-06T03:39:03;14.00;99.90
17053;DHT22;8643;48.824;11.422;2023-08-06T03:41:32;14.10;99.90
17053;DHT22;8643;48.824;11.422;2023-08-06T03:46:30;14.00;99.90
17053;DHT22;8643;48.824;11.422;2023-08-06T03:49:04;14.10;99.90
17053;DHT22;8643;48.824;11.422;2023-08-06T03:51:32;14.00;99.90
17053;DHT22;8643;48.824;11.422;2023-08-06T03:58:59;14.00;99.90
17053;DHT22;8643;48.824;11.422;2023-08-06T04:01:28;14.00;99.90
17053;DHT22;8643;48.824;11.422;2023-08-06T04:06:26;13.90;99.90
17053;DHT22;8643;48.824;11.422;2023-08-06T04:08:55;13.90;99.90
17053;DHT22;8643;48.824;11.422;2023-08-06T04:11:23;13.90;99.90
17053;DHT22;8643;48.824;11.422;2023-08-06T04:13:51;13.90;99.90
17053;DHT22;8643;48.824;11.422;2023-08-06T04:16:21;13.90;99.90
17053;DHT22;8643;48.824;11.422;2023-08-06T04:18:49;13.80;99.90
17053;DHT22;8643;48.824;11.422;2023-08-06T04:21:18;13.80;99.90
17053;DHT22;8643;48.824;11.422;2023-08-06T04:23:47;13.80;99.90
17053;DHT22;8643;48.824;11.422;2023-08-06T04:26:17;13.80;99.90
17053;DHT22;8643;48.824;11.422;2023-08-06T04:28:46;13.80;99.90
17053;DHT22;8643;48.824;11.422;2023-08-06T04:31:14;13.90;99.90
17053;DHT22;8643;48.824;11.422;2023-08-06T04:33:44;13.90;99.90
17053;DHT22;8643;48.824;11.422;2023-08-06T04:36:14;14.00;99.90
17053;DHT22;8643;48.824;11.422;2023-08-06T04:41:16;14.00;99.90
17053;DHT22;8643;48.824;11.422;2023-08-06T04:43:45;14.00;99.90
17053;DHT22;8643;48.824;11.422;2023-08-06T04:46:13;14.00;99.90
17053;DHT22;8643;48.824;11.422;2023-08-06T04:48:42;14.00;99.90
17053;DHT22;8643;48.824;11.422;2023-08-06T04:51:10;14.00;99.90
17053;DHT22;8643;48.824;11.422;2023-08-06T04:53:38;13.90;99.90
17053;DHT22;8643;48.824;11.422;2023-08-06T04:56:07;14.00;99.90
17053;DHT22;8643;48.824;11.422;2023-08-06T04:58:36;14.00;99.90
17053;DHT22;8643;48.824;11.422;2023-08-06T05:01:06;13.90;99.90
17053;DHT22;8643;48.824;11.422;2023-08-06T05:03:34;14.00;99.90
17053;DHT22;8643;48.824;11.422;2023-08-06T05:06:03;14.00;99.90
17053;DHT22;8643;48.824;11.422;2023-08-06T05:08:31;13.90;99.90
17053;DHT22;8643;48.824;11.422;2023-08-06T05:15:58;14.20;99.90
17053;DHT22;8643;48.824;11.422;2023-08-06T05:18:26;14.20;99.90
17053;DHT22;8643;48.824;11.422;2023-08-06T05:20:55;14.30;99.90
17053;DHT22;8643;48.824;11.422;2023-08-06T05:28:21;14.50;99.90
17053;DHT22;8643;48.824;11.422;2023-08-06T05:30:49;14.60;99.90
17053;DHT22;8643;48.824;11.422;2023-08-06T05:35:49;14.70;99.90
17053;DHT22;8643;48.824;11.422;2023-08-06T05:38:17;14.70;99.90
17053;DHT22;8643;48.824;11.422;2023-08-06T05:40:46;14.70;99.90
17053;DHT22;8643;48.824;11.422;2023-08-06T05:43:14;14.70;99.90
17053;DHT22;8643;48.824;11.422;2023-08-06T05:45:44;14.70;99.90
17053;DHT22;8643;48.824;11.422;2023-08-06T05:48:13;14.80;99.90
17053;DHT22;8643;48.824;11.422;2023-08-06T05:50:43;14.80;99.90
17053;DHT22;8643;48.824;11.422;2023-08-06T05:53:11;14.90;99.90
17053;DHT22;8643;48.824;11.422;2023-08-06T05:55:40;14.90;99.90
17053;DHT22;8643;48.824;11.422;2023-08-06T05:58:08;14.80;99.90
17053;DHT22;8643;48.824;11.422;2023-08-06T06:00:37;14.80;99.90
17053;DHT22;8643;48.824;11.422;2023-08-06T06:03:05;14.90;99.90
17053;DHT22;8643;48.824;11.422;2023-08-06T06:05:33;14.90;99.90
17053;DHT22;8643;48.824;11.422;2023-08-06T06:10:32;14.90;99.90
17053;DHT22;8643;48.824;11.422;2023-08-06T06:13:00;14.80;99.90
17053;DHT22;8643;48.824;11.422;2023-08-06T06:15:29;14.70;99.90
17053;DHT22;8643;48.824;11.422;2023-08-06T06:17:57;14.70;99.90
17053;DHT22;8643;48.824;11.422;2023-08-06T06:22:54;14.80;99.90
17053;DHT22;8643;48.824;11.422;2023-08-06T06:25:24;14.80;99.90
17053;DHT22;8643;48.824;11.422;2023-08-06T06:27:53;14.80;99.90
17053;DHT22;8643;48.824;11.422;2023-08-06T06:30:21;14.80;99.90
17053;DHT22;8643;48.824;11.422;2023-08-06T06:32:49;14.80;99.90
17053;DHT22;8643;48.824;11.422;2023-08-06T06:35:18;14.80;99.90
17053;DHT22;8643;48.824;11.422;2023-08-06T06:37:46;15.00;99.90
17053;DHT22;8643;48.824;11.422;2023-08-06T06:40:14;14.70;99.90
17053;DHT22;8643;48.824;11.422;2023-08-06T06:45:14;14.70;99.90
17053;DHT22;8643;48.824;11.422;2023-08-06T06:47:43;14.70;99.90
17053;DHT22;8643;48.824;11.422;2023-08-06T06:50:11;14.70;99.90
17053;DHT22;8643;48.824;11.422;2023-08-06T06:55:09;14.80;99.90
17053;DHT22;8643;48.824;11.422;2023-08-06T06:57:37;14.90;99.90
17053;DHT22;8643;48.824;11.422;2023-08-06T07:00:08;15.00;99.90
17053;DHT22;8643;48.824;11.422;2023-08-06T07:02:37;15.20;99.90
17053;DHT22;8643;48.824;11.422;2023-08-06T07:05:06;15.30;99.90
17053;DHT22;8643;48.824;11.422;2023-08-06T07:07:36;15.60;99.90
17053;DHT22;8643;48.824;11.422;2023-08-06T07:10:06;15.90;99.90
17053;DHT22;8643;48.824;11.422;2023-08-06T07:12:35;16.00;99.90
17053;DHT22;8643;48.824;11.422;2023-08-06T07:17:35;16.00;99.90
17053;DHT22;8643;48.824;11.422;2023-08-06T07:20:05;15.80;99.90
17053;DHT22;8643;48.824;11.422;2023-08-06T07:22:35;15.80;99.90
17053;DHT22;8643;48.824;11.422;2023-08-06T07:25:04;15.80;99.90
17053;DHT22;8643;48.824;11.422;2023-08-06T07:27:33;15.80;99.90
17053;DHT22;8643;48.824;11.422;2023-08-06T07:30:03;15.80;99.90
17053;DHT22;8643;48.824;11.422;2023-08-06T07:32:32;15.90;99.90
17053;DHT22;8643;48.824;11.422;2023-08-06T07:35:02;15.90;99.90
17053;DHT22;8643;48.824;11.422;2023-08-06T07:40:00;15.90;99.90
17053;DHT22;8643;48.824;11.422;2023-08-06T07:42:28;15.90;99.90
17053;DHT22;8643;48.824;11.422;2023-08-06T07:44:58;15.80;99.90
17053;DHT22;8643;48.824;11.422;2023-08-06T07:47:27;15.90;99.90
17053;DHT22;8643;48.824;11.422;2023-08-06T07:49:55;15.80;99.90
17053;DHT22;8643;48.824;11.422;2023-08-06T07:52:25;15.80;99.90
17053;DHT22;8643;48.824;11.422;2023-08-06T07:54:53;15.80;99.90
17053;DHT22;8643;48.824;11.422;2023-08-06T07:59:50;15.80;99.90
17053;DHT22;8643;48.824;11.422;2023-08-06T08:02:21;15.80;99.90
17053;DHT22;8643;48.824;11.422;2023-08-06T08:04:49;15.90;99.90
17053;DHT22;8643;48.824;11.422;2023-08-06T08:07:18;16.10;99.90
17053;DHT22;8643;48.824;11.422;2023-08-06T08:09:49;16.50;99.90
17053;DHT22;8643;48.824;11.422;2023-08-06T08:12:17;17.30;99.90
17053;DHT22;8643;48.824;11.422;2023-08-06T08:17:14;18.10;99.90
17053;DHT22;8643;48.824;11.422;2023-08-06T08:19:43;18.20;99.90
17053;DHT22;8643;48.824;11.422;2023-08-06T08:22:12;18.00;99.90
17053;DHT22;8643;48.824;11.422;2023-08-06T08:24:40;17.90;99.90
17053;DHT22;8643;48.824;11.422;2023-08-06T08:27:10;17.90;99.90
17053;DHT22;8643;48.824;11.422;2023-08-06T08:29:38;18.30;99.90
17053;DHT22;8643;48.824;11.422;2023-08-06T08:32:07;18.40;99.90
17053;DHT22;8643;48.824;11.422;2023-08-06T08:34:37;18.30;99.90
17053;DHT22;8643;48.824;11.422;2023-08-06T08:37:05;18.00;99.90
17053;DHT22;8643;48.824;11.422;2023-08-06T08:39:34;17.60;99.90
17053;DHT22;8643;48.824;11.422;2023-08-06T08:42:02;17.20;99.90
17053;DHT22;8643;48.824;11.422;2023-08-06T08:44:32;17.90;99.90
17053;DHT22;8643;48.824;11.422;2023-08-06T08:47:04;17.40;99.90
17053;DHT22;8643;48.824;11.422;2023-08-06T08:49:36;17.60;99.90
17053;DHT22;8643;48.824;11.422;2023-08-06T08:52:05;17.30;99.90
17053;DHT22;8643;48.824;11.422;2023-08-06T08:54:38;16.80;99.90
17053;DHT22;8643;48.824;11.422;2023-08-06T08:57:07;16.20;99.90
17053;DHT22;8643;48.824;11.422;2023-08-06T09:02:08;15.60;99.90
17053;DHT22;8643;48.824;11.422;2023-08-06T09:04:40;15.40;99.90
17053;DHT22;8643;48.824;11.422;2023-08-06T09:12:15;15.10;99.90
17053;DHT22;8643;48.824;11.422;2023-08-06T09:14:46;15.80;99.90
17053;DHT22;8643;48.824;11.422;2023-08-06T09:17:14;16.10;99.90
17053;DHT22;8643;48.824;11.422;2023-08-06T09:19:47;15.50;99.90
17053;DHT22;8643;48.824;11.422;2023-08-06T09:22:16;16.40;99.90
17053;DHT22;8643;48.824;11.422;2023-08-06T09:29:43;16.30;99.90
17053;DHT22;8643;48.824;11.422;2023-08-06T09:32:14;16.20;99.90
17053;DHT22;8643;48.824;11.422;2023-08-06T09:34:43;16.00;99.90
17053;DHT22;8643;48.824;11.422;2023-08-06T09:37:12;15.90;99.90
17053;DHT22;8643;48.824;11.422;2023-08-06T09:44:41;15.10;99.90
17053;DHT22;8643;48.824;11.422;2023-08-06T09:49:43;15.40;99.90
17053;DHT22;8643;48.824;11.422;2023-08-06T09:52:14;16.00;99.90
17053;DHT22;8643;48.824;11.422;2023-08-06T09:54:43;16.30;99.90
17053;DHT22;8643;48.824;11.422;2023-08-06T09:57:13;16.70;99.90
17053;DHT22;8643;48.824;11.422;2023-08-06T09:59:42;16.70;99.90
17053;DHT22;8643;48.824;11.422;2023-08-06T10:02:13;16.90;99.90
17053;DHT22;8643;48.824;11.422;2023-08-06T10:04:44;17.20;99.90
17053;DHT22;8643;48.824;11.422;2023-08-06T10:07:21;17.40;99.90
17053;DHT22;8643;48.824;11.422;2023-08-06T10:09:51;17.40;99.90
17053;DHT22;8643;48.824;11.422;2023-08-06T10:14:54;17.80;99.90
17053;DHT22;8643;48.824;11.422;2023-08-06T10:17:25;18.20;99.90
17053;DHT22;8643;48.824;11.422;2023-08-06T10:20:16;18.60;99.90
17053;DHT22;8643;48.824;11.422;2023-08-06T10:22:45;18.50;99.90
17053;DHT22;8643;48.824;11.422;2023-08-06T10:25:17;18.00;99.90
17053;DHT22;8643;48.824;11.422;2023-08-06T10:27:54;18.00;99.90
17053;DHT22;8643;48.824;11.422;2023-08-06T10:30:24;18.10;99.90
17053;DHT22;8643;48.824;11.422;2023-08-06T10:32:55;18.00;99.90
17053;DHT22;8643;48.824;11.422;2023-08-06T10:35:35;18.00;99.90
17053;DHT22;8643;48.824;11.422;2023-08-06T10:38:08;17.80;99.90
17053;DHT22;8643;48.824;11.422;2023-08-06T10:40:40;17.60;99.90
17053;DHT22;8643;48.824;11.422;2023-08-06T10:43:25;17.30;99.90
17053;DHT22;8643;48.824;11.422;2023-08-06T10:45:55;17.00;99.90
17053;DHT22;8643;48.824;11.422;2023-08-06T10:48:33;16.60;99.90
17053;DHT22;8643;48.824;11.422;2023-08-06T10:51:07;16.10;99.90
17053;DHT22;8643;48.824;11.422;2023-08-06T10:56:12;16.60;99.90
17053;DHT22;8643;48.824;11.422;2023-08-06T10:58:42;17.20;99.90
17053;DHT22;8643;48.824;11.422;2023-08-06T11:01:12;16.80;99.90
17053;DHT22;8643;48.824;11.422;2023-08-06T11:06:17;17.90;99.90
17053;DHT22;8643;48.824;11.422;2023-08-06T11:08:50;17.80;99.90
17053;DHT22;8643;48.824;11.422;2023-08-06T11:11:21;17.80;99.90
17053;DHT22;8643;48.824;11.422;2023-08-06T11:13:51;17.80;99.90
17053;DHT22;8643;48.824;11.422;2023-08-06T11:16:22;17.90;99.90
17053;DHT22;8643;48.824;11.422;2023-08-06T11:21:23;17.60;99.90
17053;DHT22;8643;48.824;11.422;2023-08-06T11:23:52;17.10;99.90
17053;DHT22;8643;48.824;11.422;2023-08-06T11:28:51;16.30;99.90
17053;DHT22;8643;48.824;11.422;2023-08-06T11:31:20;16.30;99.90
17053;DHT22;8643;48.824;11.422;2023-08-06T11:33:50;15.50;99.90
17053;DHT22;8643;48.824;11.422;2023-08-06T11:36:30;15.20;99.90
17053;DHT22;8643;48.824;11.422;2023-08-06T11:41:28;14.80;99.90
17053;DHT22;8643;48.824;11.422;2023-08-06T11:43:57;14.80;99.90
17053;DHT22;8643;48.824;11.422;2023-08-06T11:46:25;14.90;99.90
17053;DHT22;8643;48.824;11.422;2023-08-06T11:48:55;15.10;99.90
17053;DHT22;8643;48.824;11.422;2023-08-06T11:53:56;15.40;99.90
17053;DHT22;8643;48.824;11.422;2023-08-06T11:56:25;15.40;99.90
17053;DHT22;8643;48.824;11.422;2023-08-06T11:58:55;15.30;99.90
17053;DHT22;8643;48.824;11.422;2023-08-06T12:01:23;15.30;99.90
17053;DHT22;8643;48.824;11.422;2023-08-06T12:03:58;15.20;99.90
17053;DHT22;8643;48.824;11.422;2023-08-06T12:06:27;15.20;99.90
17053;DHT22;8643;48.824;11.422;2023-08-06T12:08:57;15.30;99.90
17053;DHT22;8643;48.824;11.422;2023-08-06T12:11:25;15.40;99.90
17053;DHT22;8643;48.824;11.422;2023-08-06T12:13:54;15.40;99.90
17053;DHT22;8643;48.824;11.422;2023-08-06T12:16:24;15.50;99.90
17053;DHT22;8643;48.824;11.422;2023-08-06T12:18:52;15.60;99.90
17053;DHT22;8643;48.824;11.422;2023-08-06T12:21:21;15.50;99.90
17053;DHT22;8643;48.824;11.422;2023-08-06T12:23:49;15.50;99.90
17053;DHT22;8643;48.824;11.422;2023-08-06T12:26:19;15.50;99.90
17053;DHT22;8643;48.824;11.422;2023-08-06T12:28:48;15.40;99.90
17053;DHT22;8643;48.824;11.422;2023-08-06T12:33:45;15.50;99.90
17053;DHT22;8643;48.824;11.422;2023-08-06T12:38:43;15.80;99.90
17053;DHT22;8643;48.824;11.422;2023-08-06T12:41:11;15.80;99.90
17053;DHT22;8643;48.824;11.422;2023-08-06T12:43:41;15.80;99.90
17053;DHT22;8643;48.824;11.422;2023-08-06T12:46:09;15.80;99.90
17053;DHT22;8643;48.824;11.422;2023-08-06T12:48:39;15.50;99.90
17053;DHT22;8643;48.824;11.422;2023-08-06T12:53:36;14.90;99.90
17053;DHT22;8643;48.824;11.422;2023-08-06T12:56:04;14.50;99.90
17053;DHT22;8643;48.824;11.422;2023-08-06T12:58:33;14.30;99.90
17053;DHT22;8643;48.824;11.422;2023-08-06T13:01:03;14.30;99.90
17053;DHT22;8643;48.824;11.422;2023-08-06T13:03:32;14.40;99.90
17053;DHT22;8643;48.824;11.422;2023-08-06T13:06:00;14.40;99.90
17053;DHT22;8643;48.824;11.422;2023-08-06T13:08:29;15.20;99.90
17053;DHT22;8643;48.824;11.422;2023-08-06T13:10:57;14.80;99.90
17053;DHT22;8643;48.824;11.422;2023-08-06T13:13:26;15.20;99.90
17053;DHT22;8643;48.824;11.422;2023-08-06T13:15:54;15.30;99.90
17053;DHT22;8643;48.824;11.422;2023-08-06T13:18:24;15.40;99.90
17053;DHT22;8643;48.824;11.422;2023-08-06T13:20:54;15.60;99.90
17053;DHT22;8643;48.824;11.422;2023-08-06T13:23:22;15.60;99.90
17053;DHT22;8643;48.824;11.422;2023-08-06T13:25:51;15.60;99.90
17053;DHT22;8643;48.824;11.422;2023-08-06T13:28:19;15.50;99.90
17053;DHT22;8643;48.824;11.422;2023-08-06T13:30:48;15.50;99.90
17053;DHT22;8643;48.824;11.422;2023-08-06T13:33:16;15.40;99.90
17053;DHT22;8643;48.824;11.422;2023-08-06T13:35:46;15.10;99.90
17053;DHT22;8643;48.824;11.422;2023-08-06T13:38:14;14.80;99.90
17053;DHT22;8643;48.824;11.422;2023-08-06T13:40:43;14.40;99.90
17053;DHT22;8643;48.824;11.422;2023-08-06T13:43:13;14.60;99.90
17053;DHT22;8643;48.824;11.422;2023-08-06T13:48:11;15.40;99.90
17053;DHT22;8643;48.824;11.422;2023-08-06T13:50:39;15.50;99.90
17053;DHT22;8643;48.824;11.422;2023-08-06T13:53:09;15.50;99.90
17053;DHT22;8643;48.824;11.422;2023-08-06T13:55:38;15.40;99.90
17053;DHT22;8643;48.824;11.422;2023-08-06T14:00:35;15.00;99.90
17053;DHT22;8643;48.824;11.422;2023-08-06T14:03:04;14.80;99.90
17053;DHT22;8643;48.824;11.422;2023-08-06T14:05:33;14.60;99.90
17053;DHT22;8643;48.824;11.422;2023-08-06T14:08:01;14.50;99.90
17053;DHT22;8643;48.824;11.422;2023-08-06T14:10:31;14.50;99.90
17053;DHT22;8643;48.824;11.422;2023-08-06T14:12:59;14.40;99.90
17053;DHT22;8643;48.824;11.422;2023-08-06T14:15:37;14.20;99.90
17053;DHT22;8643;48.824;11.422;2023-08-06T14:18:07;14.00;99.90
17053;DHT22;8643;48.824;11.422;2023-08-06T14:20:36;14.00;99.90
17053;DHT22;8643;48.824;11.422;2023-08-06T14:23:04;14.00;99.90
17053;DHT22;8643;48.824;11.422;2023-08-06T14:25:34;13.90;99.90
17053;DHT22;8643;48.824;11.422;2023-08-06T14:28:03;14.00;99.90
17053;DHT22;8643;48.824;11.422;2023-08-06T14:30:33;14.10;99.90
17053;DHT22;8643;48.824;11.422;2023-08-06T14:33:02;14.10;99.90
17053;DHT22;8643;48.824;11.422;2023-08-06T14:35:51;13.70;99.90
17053;DHT22;8643;48.824;11.422;2023-08-06T14:38:19;14.00;99.90
17053;DHT22;8643;48.824;11.422;2023-08-06T14:40:49;14.00;99.90
17053;DHT22;8643;48.824;11.422;2023-08-06T14:43:17;14.00;99.90
17053;DHT22;8643;48.824;11.422;2023-08-06T14:45:45;13.90;99.90
17053;DHT22;8643;48.824;11.422;2023-08-06T14:48:14;13.90;99.90
17053;DHT22;8643;48.824;11.422;2023-08-06T14:53:11;13.80;99.90
17053;DHT22;8643;48.824;11.422;2023-08-06T14:55:40;13.80;99.90
17053;DHT22;8643;48.824;11.422;2023-08-06T14:58:10;13.90;99.90
17053;DHT22;8643;48.824;11.422;2023-08-06T15:00:38;13.90;99.90
17053;DHT22;8643;48.824;11.422;2023-08-06T15:03:07;13.60;99.90
17053;DHT22;8643;48.824;11.422;2023-08-06T15:05:35;13.40;99.90
17053;DHT22;8643;48.824;11.422;2023-08-06T15:08:03;13.30;99.90
17053;DHT22;8643;48.824;11.422;2023-08-06T15:10:32;13.20;99.90
17053;DHT22;8643;48.824;11.422;2023-08-06T15:13:00;13.20;99.90
17053;DHT22;8643;48.824;11.422;2023-08-06T15:15:31;13.20;99.90
17053;DHT22;8643;48.824;11.422;2023-08-06T15:17:59;13.10;99.90
17053;DHT22;8643;48.824;11.422;2023-08-06T15:20:28;13.10;99.90
17053;DHT22;8643;48.824;11.422;2023-08-06T15:22:56;13.20;99.90
17053;DHT22;8643;48.824;11.422;2023-08-06T15:25:25;13.20;99.90
17053;DHT22;8643;48.824;11.422;2023-08-06T15:27:53;13.20;99.90
17053;DHT22;8643;48.824;11.422;2023-08-06T15:30:22;13.20;99.90
17053;DHT22;8643;48.824;11.422;2023-08-06T15:32:51;13.30;99.90
17053;DHT22;8643;48.824;11.422;2023-08-06T15:35:20;13.40;99.90
17053;DHT22;8643;48.824;11.422;2023-08-06T15:37:48;13.50;99.90
17053;DHT22;8643;48.824;11.422;2023-08-06T15:40:17;13.50;99.90
17053;DHT22;8643;48.824;11.422;2023-08-06T15:42:45;13.60;99.90
17053;DHT22;8643;48.824;11.422;2023-08-06T15:45:14;13.60;99.90
17053;DHT22;8643;48.824;11.422;2023-08-06T15:47:42;13.60;99.90
17053;DHT22;8643;48.824;11.422;2023-08-06T15:50:12;13.70;99.90
17053;DHT22;8643;48.824;11.422;2023-08-06T15:55:09;13.70;99.90
17053;DHT22;8643;48.824;11.422;2023-08-06T15:57:38;13.80;99.90
17053;DHT22;8643;48.824;11.422;2023-08-06T16:00:08;13.90;99.90
17053;DHT22;8643;48.824;11.422;2023-08-06T16:02:41;13.90;99.90
17053;DHT22;8643;48.824;11.422;2023-08-06T16:05:09;13.90;99.90
17053;DHT22;8643;48.824;11.422;2023-08-06T16:07:39;13.90;99.90
17053;DHT22;8643;48.824;11.422;2023-08-06T16:10:08;16.10;99.90
17053;DHT22;8643;48.824;11.422;2023-08-06T16:12:37;13.90;99.90
17053;DHT22;8643;48.824;11.422;2023-08-06T16:15:06;14.00;99.90
17053;DHT22;8643;48.824;11.422;2023-08-06T16:17:35;14.00;99.90
17053;DHT22;8643;48.824;11.422;2023-08-06T16:20:04;14.00;99.90
17053;DHT22;8643;48.824;11.422;2023-08-06T16:25:05;14.00;99.90
17053;DHT22;8643;48.824;11.422;2023-08-06T16:30:08;14.00;99.90
17053;DHT22;8643;48.824;11.422;2023-08-06T16:32:37;14.00;99.90
17053;DHT22;8643;48.824;11.422;2023-08-06T16:35:07;14.00;99.90
17053;DHT22;8643;48.824;11.422;2023-08-06T16:37:37;14.00;99.90
17053;DHT22;8643;48.824;11.422;2023-08-06T16:40:08;14.10;99.90
17053;DHT22;8643;48.824;11.422;2023-08-06T16:42:37;14.10;99.90
17053;DHT22;8643;48.824;11.422;2023-08-06T16:45:07;14.10;99.90
17053;DHT22;8643;48.824;11.422;2023-08-06T16:47:36;14.20;99.90
17053;DHT22;8643;48.824;11.422;2023-08-06T16:50:05;14.20;99.90
17053;DHT22;8643;48.824;11.422;2023-08-06T16:52:37;14.20;99.90
17053;DHT22;8643;48.824;11.422;2023-08-06T16:55:08;14.30;99.90
17053;DHT22;8643;48.824;11.422;2023-08-06T16:57:36;14.30;99.90
17053;DHT22;8643;48.824;11.422;2023-08-06T17:00:06;14.30;99.90
17053;DHT22;8643;48.824;11.422;2023-08-06T17:02:36;14.30;99.90
17053;DHT22;8643;48.824;11.422;2023-08-06T17:05:05;14.40;99.90
17053;DHT22;8643;48.824;11.422;2023-08-06T17:07:34;14.40;99.90
17053;DHT22;8643;48.824;11.422;2023-08-06T17:10:02;14.40;99.90
17053;DHT22;8643;48.824;11.422;2023-08-06T17:12:32;14.40;99.90
17053;DHT22;8643;48.824;11.422;2023-08-06T17:15:01;14.40;99.90
17053;DHT22;8643;48.824;11.422;2023-08-06T17:17:29;14.30;99.90
17053;DHT22;8643;48.824;11.422;2023-08-06T17:19:58;14.40;99.90
17053;DHT22;8643;48.824;11.422;2023-08-06T17:22:27;14.40;99.90
17053;DHT22;8643;48.824;11.422;2023-08-06T17:27:25;14.40;99.90
17053;DHT22;8643;48.824;11.422;2023-08-06T17:29:55;14.40;99.90
17053;DHT22;8643;48.824;11.422;2023-08-06T17:32:23;14.40;99.90
17053;DHT22;8643;48.824;11.422;2023-08-06T17:37:20;14.30;99.90
17053;DHT22;8643;48.824;11.422;2023-08-06T17:39:48;14.40;99.90
17053;DHT22;8643;48.824;11.422;2023-08-06T17:42:16;14.40;99.90
17053;DHT22;8643;48.824;11.422;2023-08-06T17:44:45;14.30;99.90
17053;DHT22;8643;48.824;11.422;2023-08-06T17:47:15;14.20;99.90
17053;DHT22;8643;48.824;11.422;2023-08-06T17:50:00;14.20;99.90
17053;DHT22;8643;48.824;11.422;2023-08-06T17:52:29;15.10;99.90
17053;DHT22;8643;48.824;11.422;2023-08-06T17:54:57;13.70;99.90
17053;DHT22;8643;48.824;11.422;2023-08-06T17:57:26;13.40;99.90
17053;DHT22;8643;48.824;11.422;2023-08-06T17:59:55;14.40;99.90
17053;DHT22;8643;48.824;11.422;2023-08-06T18:02:24;13.20;99.90
17053;DHT22;8643;48.824;11.422;2023-08-06T18:04:53;13.20;99.90
17053;DHT22;8643;48.824;11.422;2023-08-06T18:09:50;13.10;99.90